Time;durP1;ratioP1;P1;durP2;ratioP2;P2;SDS_P1;SDS_P2;PMS_P1;PMS_P2;Temp;Humidity;BMP_temperature;BMP_pressure;BME280_temperature;BME280_humidity;BME280_pressure;Samples;Min_cycle;Max_cycle;Signal;HPM_P1;HPM_P2
2023/04/03 00:02:11;;;;;;;5.18;1.15;;;4.80;76.90;;;;;;4991162;28;20551;-91
2023/04/03 00:04:36;;;;;;;4.68;1.27;;;4.80;77.00;;;;;;4977610;28;20045;-91
2023/04/03 00:07:02;;;;;;;4.30;1.27;;;4.80;77.00;;;;;;4977435;28;20099;-90
2023/04/03 00:09:27;;;;;;;5.35;1.40;;;4.80;77.40;;;;;;4969114;28;20037;-91
2023/04/03 00:11:53;;;;;;;4.50;1.23;;;4.70;77.90;;;;;;4977995;28;20076;-91
2023/04/03 00:14:19;;;;;;;4.40;1.20;;;4.80;77.60;;;;;;4974771;28;20124;-90
2023/04/03 00:16:44;;;;;;;6.55;1.30;;;4.70;77.70;;;;;;4992408;28;20037;-91
2023/04/03 00:19:11;;;;;;;4.63;1.25;;;4.70;77.80;;;;;;4992617;28;20469;-91
2023/04/03 00:21:37;;;;;;;5.43;1.20;;;4.60;78.00;;;;;;4973500;28;20038;-91
2023/04/03 00:24:03;;;;;;;5.80;1.17;;;4.60;78.10;;;;;;4990441;28;20130;-90
2023/04/03 00:26:29;;;;;;;5.93;1.20;;;4.60;78.20;;;;;;4967145;28;20125;-90
2023/04/03 00:28:54;;;;;;;6.93;1.52;;;4.60;78.50;;;;;;4982876;28;20065;-91
2023/04/03 00:31:20;;;;;;;4.00;1.30;;;4.60;79.20;;;;;;4990437;28;20038;-91
2023/04/03 00:33:46;;;;;;;4.65;1.63;;;4.50;78.80;;;;;;4957525;28;20042;-91
2023/04/03 00:36:13;;;;;;;4.47;1.20;;;4.50;79.70;;;;;;4957747;28;20046;-91
2023/04/03 00:38:38;;;;;;;4.97;1.58;;;4.50;79.40;;;;;;4962685;28;20426;-91
2023/04/03 00:41:04;;;;;;;5.53;1.30;;;4.50;79.40;;;;;;4993126;28;20046;-91
2023/04/03 00:43:30;;;;;;;5.35;1.27;;;4.40;79.80;;;;;;4976060;28;20097;-91
2023/04/03 00:45:57;;;;;;;3.42;1.08;;;4.40;79.90;;;;;;4970660;28;20680;-91
2023/04/03 00:48:31;;;;;;;4.22;1.08;;;4.40;80.10;;;;;;4992491;28;20519;-90
2023/04/03 00:50:57;;;;;;;5.55;1.55;;;4.40;80.00;;;;;;4986706;28;20061;-91
2023/04/03 00:53:27;;;;;;;8.50;1.30;;;4.40;80.00;;;;;;4978988;28;20381;-91
2023/04/03 00:55:55;;;;;;;5.18;1.15;;;4.30;80.70;;;;;;4990978;28;20034;-91
2023/04/03 00:58:27;;;;;;;4.85;1.15;;;4.30;80.60;;;;;;4980463;28;20088;-90
2023/04/03 01:00:57;;;;;;;3.33;0.90;;;4.30;81.40;;;;;;4990723;28;20030;-91
2023/04/03 01:03:23;;;;;;;3.40;1.08;;;4.30;81.50;;;;;;4979757;28;20144;-91
2023/04/03 01:05:50;;;;;;;7.28;1.48;;;4.30;81.30;;;;;;4980335;28;20572;-91
2023/04/03 01:08:16;;;;;;;4.95;1.25;;;4.20;81.20;;;;;;4983932;28;20041;-92
2023/04/03 01:10:42;;;;;;;5.90;1.40;;;4.20;81.80;;;;;;4995499;28;20046;-91
2023/04/03 01:13:31;;;;;;;4.43;1.25;;;4.20;82.30;;;;;;4993313;28;20045;-91
2023/04/03 01:16:01;;;;;;;7.10;1.52;;;4.10;82.70;;;;;;4980507;28;20070;-91
2023/04/03 01:18:27;;;;;;;3.30;1.30;;;4.10;83.30;;;;;;4995878;28;20053;-90
2023/04/03 01:21:12;;;;;;;6.28;1.48;;;4.10;83.40;;;;;;4978046;28;20038;-91
2023/04/03 01:23:46;;;;;;;5.97;1.60;;;4.10;84.60;;;;;;4979027;28;20050;-91
2023/04/03 01:26:12;;;;;;;8.02;1.95;;;4.00;84.80;;;;;;4972159;28;20034;-91
2023/04/03 01:28:38;;;;;;;6.07;1.60;;;4.00;84.60;;;;;;4976533;28;20035;-91
2023/04/03 01:31:22;;;;;;;5.75;1.20;;;4.00;84.60;;;;;;4962005;28;20030;-91
2023/04/03 01:33:47;;;;;;;6.55;1.55;;;4.00;85.20;;;;;;4940532;28;20125;-91
2023/04/03 01:36:20;;;;;;;5.63;1.40;;;4.00;85.60;;;;;;4940974;28;20134;-91
2023/04/03 01:38:47;;;;;;;3.80;1.20;;;3.90;86.50;;;;;;4972970;28;20053;-91
2023/04/03 01:41:12;;;;;;;5.32;1.42;;;3.90;86.70;;;;;;4991477;28;20042;-91
2023/04/03 01:43:38;;;;;;;8.27;1.90;;;3.90;87.20;;;;;;4960239;28;20108;-90
2023/04/03 01:46:04;;;;;;;4.88;1.42;;;3.90;88.00;;;;;;4959709;28;20046;-91
2023/04/03 01:48:29;;;;;;;4.68;1.20;;;3.80;88.30;;;;;;4967964;28;20125;-90
2023/04/03 01:50:55;;;;;;;4.05;1.05;;;3.80;88.80;;;;;;4963553;28;20072;-90
2023/04/03 01:53:21;;;;;;;7.60;1.52;;;3.80;88.40;;;;;;4976271;28;20042;-90
2023/04/03 01:55:46;;;;;;;6.68;1.52;;;3.80;89.30;;;;;;4962241;28;20038;-91
2023/04/03 01:58:12;;;;;;;7.15;1.48;;;3.80;89.80;;;;;;4991956;28;20037;-90
2023/04/03 02:00:38;;;;;;;5.28;1.23;;;3.70;90.30;;;;;;4993799;28;20051;-90
2023/04/03 02:03:03;;;;;;;5.75;1.30;;;3.70;89.20;;;;;;4975912;28;20042;-90
2023/04/03 02:05:29;;;;;;;7.05;1.55;;;3.70;89.50;;;;;;4975477;28;20392;-90
2023/04/03 02:07:55;;;;;;;5.75;1.50;;;3.70;90.20;;;;;;4975585;28;20074;-90
2023/04/03 02:10:20;;;;;;;5.32;1.48;;;3.70;90.00;;;;;;4974903;28;20054;-91
2023/04/03 02:12:46;;;;;;;4.50;1.45;;;3.60;90.40;;;;;;4959133;28;20049;-90
2023/04/03 02:15:12;;;;;;;6.13;1.30;;;3.60;90.80;;;;;;4978884;28;20045;-91
2023/04/03 02:17:37;;;;;;;2.75;1.25;;;3.60;91.10;;;;;;4979158;28;20041;-90
2023/04/03 02:20:03;;;;;;;5.18;1.65;;;3.60;91.00;;;;;;4976608;28;20173;-90
2023/04/03 02:22:29;;;;;;;5.07;1.48;;;3.50;91.40;;;;;;4994883;28;20586;-91
2023/04/03 02:24:55;;;;;;;6.10;1.40;;;3.50;92.10;;;;;;4995032;28;20045;-90
2023/04/03 02:27:20;;;;;;;4.90;1.45;;;3.50;91.60;;;;;;4971257;28;20644;-90
2023/04/03 02:29:46;;;;;;;4.70;1.52;;;3.50;92.40;;;;;;4978633;28;20052;-90
2023/04/03 02:32:11;;;;;;;4.43;1.20;;;3.50;92.40;;;;;;4994641;28;20442;-91
2023/04/03 02:34:37;;;;;;;6.53;1.73;;;3.50;91.70;;;;;;4977664;28;20125;-91
2023/04/03 02:37:03;;;;;;;6.63;1.50;;;3.50;92.10;;;;;;4986833;28;20492;-90
2023/04/03 02:39:28;;;;;;;5.53;1.35;;;3.40;91.90;;;;;;4979839;28;20077;-91
2023/04/03 02:41:54;;;;;;;6.32;1.25;;;3.40;92.40;;;;;;4975107;28;20042;-90
2023/04/03 02:44:19;;;;;;;7.88;1.65;;;3.40;92.90;;;;;;4975027;28;20105;-90
2023/04/03 02:46:45;;;;;;;8.30;1.98;;;3.30;94.00;;;;;;4959332;28;20046;-90
2023/04/03 02:49:10;;;;;;;8.30;1.50;;;3.30;93.60;;;;;;4975382;28;20507;-90
2023/04/03 02:51:36;;;;;;;7.30;1.50;;;3.30;93.10;;;;;;4985037;28;20034;-90
2023/04/03 02:54:02;;;;;;;9.43;2.22;;;3.30;93.70;;;;;;4994267;28;20128;-91
2023/04/03 02:56:27;;;;;;;6.35;1.38;;;3.20;93.10;;;;;;4990107;28;20418;-91
2023/04/03 02:58:53;;;;;;;7.78;1.55;;;3.30;93.10;;;;;;4977568;28;20787;-90
2023/04/03 03:01:19;;;;;;;5.70;1.02;;;3.20;94.70;;;;;;4989569;28;20117;-91
2023/04/03 03:03:45;;;;;;;3.65;1.10;;;3.20;94.40;;;;;;4974281;28;20451;-90
2023/04/03 03:06:13;;;;;;;5.60;1.20;;;3.20;94.70;;;;;;4958491;28;20073;-90
2023/04/03 03:08:39;;;;;;;5.78;1.67;;;3.10;94.80;;;;;;4977666;28;20042;-91
2023/04/03 03:11:05;;;;;;;7.53;1.88;;;3.10;94.70;;;;;;4958002;28;20035;-90
2023/04/03 03:13:31;;;;;;;5.72;1.60;;;3.10;95.10;;;;;;4980663;28;20060;-90
2023/04/03 03:15:57;;;;;;;7.80;1.85;;;3.00;95.60;;;;;;4992854;28;20041;-90
2023/04/03 03:18:22;;;;;;;7.80;1.75;;;3.00;96.40;;;;;;4993349;28;20038;-90
2023/04/03 03:20:52;;;;;;;9.10;1.70;;;3.00;96.50;;;;;;4977450;28;20662;-90
2023/04/03 03:23:18;;;;;;;5.55;1.75;;;3.00;96.30;;;;;;4990249;28;20106;-91
2023/04/03 03:25:44;;;;;;;5.50;1.48;;;3.00;96.50;;;;;;4973615;28;20035;-90
2023/04/03 03:28:10;;;;;;;7.43;1.75;;;2.90;96.30;;;;;;4974109;28;20120;-89
2023/04/03 03:30:35;;;;;;;5.70;1.60;;;2.90;96.20;;;;;;4962477;28;20123;-90
2023/04/03 03:33:01;;;;;;;5.35;1.88;;;2.90;96.60;;;;;;4977242;28;20030;-90
2023/04/03 03:35:27;;;;;;;4.65;1.45;;;2.80;96.80;;;;;;5002634;28;20081;-91
2023/04/03 03:37:52;;;;;;;6.45;1.50;;;2.80;97.60;;;;;;4990159;28;20029;-90
2023/04/03 03:40:18;;;;;;;9.50;2.15;;;2.80;97.00;;;;;;4992840;28;20038;-90
2023/04/03 03:42:43;;;;;;;7.22;2.00;;;2.70;97.30;;;;;;4993216;28;20037;-90
2023/04/03 03:45:09;;;;;;;7.90;1.73;;;2.70;97.20;;;;;;4971184;28;20096;-90
2023/04/03 03:47:35;;;;;;;8.68;2.10;;;2.70;97.50;;;;;;4993944;28;20650;-90
2023/04/03 03:50:02;;;;;;;7.30;1.73;;;2.70;98.10;;;;;;4974272;28;20045;-90
2023/04/03 03:52:28;;;;;;;6.60;1.75;;;2.70;97.70;;;;;;4993608;28;20046;-91
2023/04/03 03:54:53;;;;;;;7.93;1.77;;;2.60;97.60;;;;;;4988746;28;20107;-90
2023/04/03 03:57:19;;;;;;;6.40;1.52;;;2.60;96.90;;;;;;5004533;28;20100;-91
2023/04/03 03:59:44;;;;;;;6.20;1.75;;;2.60;98.50;;;;;;4987169;28;20459;-90
2023/04/03 04:02:11;;;;;;;6.93;1.80;;;2.60;99.20;;;;;;5002091;28;20073;-90
2023/04/03 04:04:37;;;;;;;5.40;1.52;;;2.60;99.50;;;;;;4992328;28;20077;-90
2023/04/03 04:07:03;;;;;;;8.20;1.83;;;2.50;99.80;;;;;;4990255;28;20038;-90
2023/04/03 04:09:28;;;;;;;6.00;1.80;;;2.60;98.80;;;;;;4976350;28;20085;-90
2023/04/03 04:11:54;;;;;;;4.85;1.40;;;2.50;97.60;;;;;;4986408;28;20038;-90
2023/04/03 04:14:22;;;;;;;6.38;1.52;;;2.50;99.20;;;;;;4973674;28;20420;-90
2023/04/03 04:16:48;;;;;;;5.13;1.73;;;2.50;98.70;;;;;;4989283;28;20475;-90
2023/04/03 04:19:14;;;;;;;10.93;1.70;;;2.50;99.80;;;;;;4987996;28;20084;-90
2023/04/03 04:21:41;;;;;;;8.13;2.13;;;2.40;99.70;;;;;;4975738;28;20499;-90
2023/04/03 04:24:07;;;;;;;7.78;1.83;;;2.40;99.30;;;;;;4976509;28;20415;-90
2023/04/03 04:26:33;;;;;;;6.82;1.77;;;2.40;99.60;;;;;;4973532;28;20042;-90
2023/04/03 04:28:59;;;;;;;5.85;1.60;;;2.40;98.40;;;;;;4979358;28;20030;-90
2023/04/03 04:31:25;;;;;;;5.90;1.65;;;2.40;98.90;;;;;;4977039;28;20124;-90
2023/04/03 04:33:51;;;;;;;6.45;1.83;;;2.30;99.20;;;;;;4961066;28;20097;-90
2023/04/03 04:36:17;;;;;;;6.32;1.50;;;2.30;99.90;;;;;;4984997;28;20037;-90
2023/04/03 04:38:43;;;;;;;6.10;1.50;;;2.30;99.90;;;;;;4979624;28;20646;-90
2023/04/03 04:41:09;;;;;;;6.93;2.05;;;2.30;99.90;;;;;;4979460;28;20042;-90
2023/04/03 04:43:34;;;;;;;5.40;1.73;;;2.30;99.90;;;;;;4976524;28;20500;-90
2023/04/03 04:46:06;;;;;;;6.13;1.90;;;2.30;99.60;;;;;;4961081;28;20034;-90
2023/04/03 04:48:31;;;;;;;5.25;1.60;;;2.20;99.90;;;;;;4992951;28;20069;-90
2023/04/03 04:50:57;;;;;;;5.50;1.88;;;2.20;99.90;;;;;;4960379;28;20042;-90
2023/04/03 04:53:23;;;;;;;6.63;1.77;;;2.20;99.90;;;;;;4960845;28;20053;-90
2023/04/03 04:55:48;;;;;;;6.72;1.85;;;2.20;99.70;;;;;;4970184;28;20578;-91
2023/04/03 04:58:14;;;;;;;8.93;1.88;;;2.20;99.70;;;;;;4979540;28;20377;-90
2023/04/03 05:00:40;;;;;;;7.57;1.70;;;2.10;99.60;;;;;;4975459;28;20061;-90
2023/04/03 05:03:05;;;;;;;5.90;1.80;;;2.10;98.90;;;;;;4975596;28;20048;-90
2023/04/03 05:05:31;;;;;;;9.93;1.85;;;2.10;99.10;;;;;;4960410;28;20038;-91
2023/04/03 05:07:56;;;;;;;6.75;1.95;;;2.10;99.20;;;;;;4967959;28;20451;-91
2023/04/03 05:10:22;;;;;;;7.85;1.83;;;2.10;99.70;;;;;;4992480;28;20038;-90
2023/04/03 05:12:48;;;;;;;7.03;1.88;;;2.00;99.30;;;;;;4961559;28;20501;-90
2023/04/03 05:15:13;;;;;;;5.07;1.65;;;2.00;99.90;;;;;;4981622;28;20045;-90
2023/04/03 05:17:39;;;;;;;4.13;1.67;;;2.00;99.90;;;;;;4959778;28;20042;-90
2023/04/03 05:20:05;;;;;;;6.88;1.80;;;2.00;99.50;;;;;;4963316;28;20038;-90
2023/04/03 05:22:31;;;;;;;10.40;2.67;;;2.00;99.90;;;;;;4992326;28;20403;-90
2023/04/03 05:24:57;;;;;;;8.73;2.28;;;2.00;99.90;;;;;;4960536;28;20565;-90
2023/04/03 05:27:24;;;;;;;7.47;1.88;;;1.90;99.90;;;;;;4977355;28;20053;-90
2023/04/03 05:29:49;;;;;;;6.22;2.10;;;2.00;99.90;;;;;;5003977;28;20053;-90
2023/04/03 05:32:16;;;;;;;7.63;1.95;;;1.90;99.90;;;;;;4983897;28;20034;-90
2023/04/03 05:34:41;;;;;;;5.70;1.60;;;2.00;99.90;;;;;;4995453;28;20850;-90
2023/04/03 05:37:07;;;;;;;5.15;1.60;;;2.00;99.90;;;;;;4992637;28;20120;-90
2023/04/03 05:39:33;;;;;;;8.88;2.03;;;2.00;99.90;;;;;;4987545;28;20041;-91
2023/04/03 05:41:59;;;;;;;6.25;1.80;;;2.00;99.90;;;;;;4995116;28;20133;-92
2023/04/03 05:44:25;;;;;;;9.57;1.75;;;2.00;99.90;;;;;;4963989;28;20061;-90
2023/04/03 05:46:51;;;;;;;5.72;1.92;;;2.00;99.90;;;;;;4976760;28;20567;-90
2023/04/03 05:49:16;;;;;;;4.30;1.60;;;2.10;99.90;;;;;;4963496;28;20034;-91
2023/04/03 05:51:42;;;;;;;6.43;1.80;;;2.00;99.90;;;;;;4993041;28;20582;-90
2023/04/03 05:54:20;;;;;;;8.27;1.70;;;2.10;99.90;;;;;;4995592;28;20038;-90
2023/04/03 05:56:45;;;;;;;7.72;2.08;;;2.10;99.90;;;;;;4980809;28;20048;-90
2023/04/03 05:59:11;;;;;;;7.20;1.92;;;2.10;99.80;;;;;;5008890;28;20034;-90
2023/04/03 06:01:37;;;;;;;8.02;2.13;;;2.20;99.90;;;;;;4975838;28;20038;-91
2023/04/03 06:04:03;;;;;;;6.88;1.60;;;2.10;99.90;;;;;;4995062;28;20049;-90
2023/04/03 06:06:47;;;;;;;6.82;1.90;;;2.20;99.90;;;;;;4995196;28;20042;-90
2023/04/03 06:09:13;;;;;;;7.95;1.75;;;2.20;99.90;;;;;;4988647;28;20034;-91
2023/04/03 06:11:42;;;;;;;6.85;1.60;;;2.20;99.90;;;;;;5012539;28;20037;-91
2023/04/03 06:14:08;;;;;;;7.85;1.60;;;2.30;99.90;;;;;;4986121;28;20407;-91
2023/04/03 06:16:34;;;;;;;6.97;1.60;;;2.30;99.90;;;;;;4979009;28;20073;-90
2023/04/03 06:19:00;;;;;;;8.32;1.70;;;2.40;99.90;;;;;;4979116;28;20133;-91
2023/04/03 06:21:26;;;;;;;9.82;1.50;;;2.40;99.90;;;;;;4964373;28;20117;-91
2023/04/03 06:23:52;;;;;;;7.00;1.50;;;2.40;99.90;;;;;;4976032;28;20039;-90
2023/04/03 06:26:18;;;;;;;9.90;1.70;;;2.50;99.60;;;;;;4976408;28;20048;-90
2023/04/03 06:28:43;;;;;;;7.85;1.95;;;2.50;99.90;;;;;;4952197;28;20516;-91
2023/04/03 06:31:09;;;;;;;8.32;2.00;;;2.50;99.90;;;;;;4972864;28;20043;-92
2023/04/03 06:33:34;;;;;;;7.45;1.45;;;2.60;99.90;;;;;;5004288;28;20050;-91
2023/04/03 06:36:03;;;;;;;4.22;1.65;;;2.60;99.90;;;;;;4972468;28;20045;-91
2023/04/03 06:38:29;;;;;;;5.97;1.95;;;2.70;99.90;;;;;;4975901;28;20047;-91
2023/04/03 06:40:56;;;;;;;6.00;1.40;;;2.70;99.90;;;;;;4965491;28;20034;-91
2023/04/03 06:43:22;;;;;;;6.43;1.73;;;2.80;99.90;;;;;;4991833;28;20034;-91
2023/04/03 06:45:48;;;;;;;6.95;1.77;;;2.80;99.70;;;;;;4975653;28;20053;-91
2023/04/03 06:48:14;;;;;;;5.10;1.40;;;2.90;99.60;;;;;;4959349;28;20447;-91
2023/04/03 06:50:40;;;;;;;4.78;1.33;;;2.90;99.90;;;;;;5019128;28;20074;-91
2023/04/03 06:53:06;;;;;;;4.70;1.48;;;2.90;99.50;;;;;;4990651;28;20121;-91
2023/04/03 06:55:32;;;;;;;5.72;1.70;;;3.00;99.30;;;;;;4991208;28;20049;-91
2023/04/03 06:57:58;;;;;;;5.55;1.63;;;3.00;99.00;;;;;;4977785;28;20034;-91
2023/04/03 07:00:24;;;;;;;6.35;1.42;;;3.10;99.20;;;;;;4972000;28;20038;-92
2023/04/03 07:02:51;;;;;;;7.18;1.60;;;3.20;99.40;;;;;;5008290;28;20177;-91
2023/04/03 07:05:17;;;;;;;7.20;1.58;;;3.30;99.30;;;;;;4987379;28;20523;-91
2023/04/03 07:07:43;;;;;;;7.32;1.50;;;3.30;98.90;;;;;;4978910;28;20038;-91
2023/04/03 07:10:09;;;;;;;6.03;1.88;;;3.40;98.70;;;;;;4975150;28;20116;-91
2023/04/03 07:12:35;;;;;;;5.95;1.52;;;3.40;98.50;;;;;;4978461;28;20483;-92
2023/04/03 07:15:01;;;;;;;5.68;1.58;;;3.50;98.10;;;;;;4985292;28;20042;-92
2023/04/03 07:17:27;;;;;;;5.90;1.30;;;3.50;97.80;;;;;;4956531;28;20136;-92
2023/04/03 07:19:53;;;;;;;6.60;1.55;;;3.60;98.20;;;;;;4958984;28;20046;-93
2023/04/03 07:22:18;;;;;;;53.40;6.47;;;3.70;97.90;;;;;;4987870;28;20132;-92
2023/04/03 07:24:44;;;;;;;17.65;3.85;;;3.70;97.40;;;;;;4993315;28;20046;-92
2023/04/03 07:27:12;;;;;;;43.63;4.07;;;3.80;97.00;;;;;;4979568;28;20468;-91
2023/04/03 07:29:38;;;;;;;5.20;1.60;;;3.90;97.20;;;;;;5005968;28;20043;-92
2023/04/03 07:32:05;;;;;;;4.45;0.90;;;4.00;96.70;;;;;;4992820;28;20084;-93
2023/04/03 07:34:31;;;;;;;13.30;1.90;;;4.00;96.30;;;;;;4976241;28;20518;-92
2023/04/03 07:36:57;;;;;;;6.35;1.08;;;4.10;95.90;;;;;;4977011;28;20038;-93
2023/04/03 07:39:23;;;;;;;4.47;1.20;;;4.20;95.70;;;;;;4984062;28;20482;-92
2023/04/03 07:41:48;;;;;;;8.38;1.33;;;4.30;95.70;;;;;;4993032;28;20042;-93
2023/04/03 07:44:14;;;;;;;5.78;1.60;;;4.30;95.30;;;;;;4975713;28;20041;-91
2023/04/03 07:46:40;;;;;;;4.65;1.27;;;4.40;94.90;;;;;;4989680;28;20129;-93
2023/04/03 07:49:06;;;;;;;6.65;1.55;;;4.50;94.70;;;;;;4993795;28;20042;-93
2023/04/03 07:51:32;;;;;;;4.75;1.45;;;4.50;93.80;;;;;;4981727;28;20034;-93
2023/04/03 07:53:58;;;;;;;6.95;1.52;;;4.60;94.10;;;;;;4974287;28;20047;-93
2023/04/03 07:56:25;;;;;;;6.72;1.40;;;4.70;93.20;;;;;;4961757;28;20038;-91
2023/04/03 07:58:50;;;;;;;7.68;1.08;;;4.80;93.00;;;;;;4977734;28;20046;-93
2023/04/03 08:01:16;;;;;;;14.10;1.60;;;4.90;92.50;;;;;;4975177;28;20046;-92
2023/04/03 08:03:41;;;;;;;8.52;1.45;;;5.00;92.00;;;;;;4976268;28;20042;-91
2023/04/03 08:06:08;;;;;;;4.97;1.20;;;5.00;91.50;;;;;;4961962;28;20045;-91
2023/04/03 08:08:35;;;;;;;5.20;1.40;;;5.10;90.80;;;;;;4969616;28;20117;-90
2023/04/03 08:11:02;;;;;;;4.13;1.10;;;5.20;90.50;;;;;;4980701;28;20041;-91
2023/04/03 08:13:29;;;;;;;5.05;1.70;;;5.30;90.40;;;;;;4980304;28;20513;-90
2023/04/03 08:15:57;;;;;;;6.70;1.33;;;5.40;89.90;;;;;;4982833;28;20495;-91
2023/04/03 08:18:24;;;;;;;3.40;0.90;;;5.50;89.70;;;;;;4961152;28;20042;-92
2023/04/03 08:20:51;;;;;;;4.07;1.10;;;5.50;88.90;;;;;;4967603;28;20042;-92
2023/04/03 08:23:17;;;;;;;6.03;0.93;;;5.60;87.60;;;;;;4977201;28;20046;-91
2023/04/03 08:25:44;;;;;;;3.47;1.25;;;5.70;86.40;;;;;;4961972;28;20077;-91
2023/04/03 08:28:11;;;;;;;4.82;1.30;;;5.80;85.50;;;;;;4980695;28;20038;-91
2023/04/03 08:30:40;;;;;;;4.82;1.20;;;5.90;84.60;;;;;;4988378;28;20508;-92
2023/04/03 08:33:07;;;;;;;3.65;1.05;;;5.90;83.30;;;;;;4996461;28;20066;-92
2023/04/03 08:35:32;;;;;;;3.80;1.08;;;6.00;82.40;;;;;;4981099;28;20040;-92
2023/04/03 08:37:58;;;;;;;2.33;0.80;;;6.10;82.60;;;;;;4992217;28;20046;-92
2023/04/03 08:40:24;;;;;;;4.40;1.00;;;6.20;81.20;;;;;;4997083;28;20620;-92
2023/04/03 08:42:56;;;;;;;6.60;1.05;;;6.20;81.00;;;;;;4976587;28;20073;-93
2023/04/03 08:45:49;;;;;;;3.45;0.85;;;6.30;80.60;;;;;;4941914;28;20051;-92
2023/04/03 08:48:19;;;;;;;;;;;6.40;78.70;;;;;;4968749;28;20117;-92
2023/04/03 08:50:51;;;;;;;4.72;1.15;;;6.50;77.20;;;;;;4969620;28;19965;-92
2023/04/03 08:53:28;;;;;;;4.45;1.45;;;6.60;79.70;;;;;;4982229;28;20500;-92
2023/04/03 08:55:55;;;;;;;2.95;0.93;;;6.70;79.00;;;;;;4964843;28;20034;-92
2023/04/03 08:58:29;;;;;;;2.63;0.80;;;6.80;78.50;;;;;;4979960;28;20041;-91
2023/04/03 09:01:03;;;;;;;5.00;0.90;;;6.90;77.70;;;;;;4979206;28;20038;-91
2023/04/03 09:03:32;;;;;;;3.17;0.90;;;7.00;76.50;;;;;;4973705;28;20045;-92
2023/04/03 09:06:13;;;;;;;3.83;1.13;;;7.10;76.20;;;;;;4979477;28;20053;-93
2023/04/03 09:08:46;;;;;;;5.45;1.20;;;7.20;75.80;;;;;;4963553;28;20071;-93
2023/04/03 09:11:22;;;;;;;5.25;1.10;;;7.30;75.80;;;;;;4961187;28;20080;-92
2023/04/03 09:13:59;;;;;;;4.55;0.85;;;7.40;75.10;;;;;;4988706;28;20034;-92
2023/04/03 09:16:54;;;;;;;4.45;0.95;;;7.50;75.40;;;;;;4957267;28;20119;-93
2023/04/03 09:19:23;;;;;;;4.10;1.00;;;7.60;73.10;;;;;;4947434;28;20054;-93
2023/04/03 09:21:49;;;;;;;3.67;1.02;;;7.70;73.50;;;;;;4993786;28;20073;-92
2023/04/03 09:24:17;;;;;;;4.03;1.10;;;7.80;73.50;;;;;;4979185;28;20078;-93
2023/04/03 09:26:45;;;;;;;3.50;0.90;;;7.80;73.20;;;;;;4986080;28;20085;-93
2023/04/03 09:29:18;;;;;;;4.53;0.85;;;7.90;72.90;;;;;;4976136;28;20038;-93
2023/04/03 09:31:47;;;;;;;4.40;0.95;;;8.00;72.00;;;;;;4960283;28;20492;-94
2023/04/03 09:34:32;;;;;;;2.90;0.77;;;8.10;72.10;;;;;;4992539;28;20126;-94
2023/04/03 09:37:05;;;;;;;4.85;1.33;;;8.10;70.40;;;;;;4960235;28;20125;-94
2023/04/03 09:39:32;;;;;;;2.67;0.73;;;8.20;70.70;;;;;;4992393;28;20742;-95
2023/04/03 09:42:00;;;;;;;3.08;1.08;;;8.30;70.40;;;;;;4975292;28;20034;-96
2023/04/03 09:44:28;;;;;;;3.42;0.80;;;8.40;70.00;;;;;;4995518;28;20125;-94
2023/04/03 09:46:54;;;;;;;2.60;0.65;;;8.50;70.00;;;;;;4994119;28;20431;-94
2023/04/03 09:49:20;;;;;;;4.60;1.15;;;8.50;68.90;;;;;;4960245;28;20535;-95
2023/04/03 09:51:46;;;;;;;4.72;0.82;;;8.60;68.60;;;;;;4981357;28;20117;-95
2023/04/03 09:54:32;;;;;;;4.05;1.08;;;8.70;68.60;;;;;;4992545;28;20049;-94
2023/04/03 09:57:06;;;;;;;1.38;0.65;;;8.70;66.50;;;;;;4980037;28;20091;-94
2023/04/03 09:59:32;;;;;;;3.88;0.90;;;8.80;67.90;;;;;;4983563;28;20038;-95
2023/04/03 10:02:02;;;;;;;3.72;0.90;;;8.90;67.90;;;;;;5021970;28;20100;-95
2023/04/03 10:04:38;;;;;;;2.50;0.90;;;9.10;67.80;;;;;;4986174;28;20078;-95
2023/04/03 10:07:35;;;;;;;1.90;0.60;;;9.20;67.10;;;;;;4972491;28;20046;-95
2023/04/03 10:10:16;;;;;;;1.35;0.47;;;9.30;65.20;;;;;;4956099;28;20038;-94
2023/04/03 10:12:42;;;;;;;2.45;0.90;;;9.30;64.80;;;;;;4995286;28;20045;-94
2023/04/03 10:15:18;;;;;;;4.03;0.80;;;9.40;65.60;;;;;;4977823;28;20041;-94
2023/04/03 10:18:10;;;;;;;3.05;0.70;;;9.50;65.30;;;;;;4991428;28;20038;-95
2023/04/03 10:20:49;;;;;;;3.70;0.80;;;9.60;64.30;;;;;;4959496;28;20558;-96
2023/04/03 10:23:22;;;;;;;3.60;1.02;;;9.70;64.70;;;;;;4946125;28;20043;-95
2023/04/03 10:26:16;;;;;;;5.55;1.60;;;9.70;64.60;;;;;;4939303;28;20038;-94
2023/04/03 10:28:47;;;;;;;;;;;9.80;64.10;;;;;;4989598;28;20039;-94
2023/04/03 10:31:26;;;;;;;3.28;0.85;;;9.80;61.30;;;;;;4983025;28;20339;-95
2023/04/03 10:34:04;;;;;;;4.25;0.90;;;9.90;64.30;;;;;;4971916;28;20065;-95
2023/04/03 10:36:56;;;;;;;2.47;0.80;;;10.00;63.00;;;;;;4977830;28;20037;-95
2023/04/03 10:39:48;;;;;;;5.65;1.40;;;10.10;63.00;;;;;;4967204;28;20057;-94
2023/04/03 10:42:36;;;;;;;2.25;0.60;;;10.20;61.80;;;;;;4972101;28;20066;-96
2023/04/03 10:45:24;;;;;;;3.13;0.98;;;10.40;62.60;;;;;;4993132;28;20044;-95
2023/04/03 10:48:06;;;;;;;4.25;0.80;;;10.50;61.00;;;;;;4994898;28;20037;-95
2023/04/03 10:51:16;;;;;;;3.05;1.00;;;10.60;62.30;;;;;;4967033;28;20031;-92
2023/04/03 10:54:06;;;;;;;3.75;1.08;;;10.70;61.30;;;;;;4959859;28;20562;-92
2023/04/03 10:57:01;;;;;;;2.88;0.90;;;10.90;59.00;;;;;;4981713;28;20108;-92
2023/04/03 10:59:35;;;;;;;6.40;1.55;;;10.90;60.70;;;;;;4972891;28;20764;-93
2023/04/03 11:02:15;;;;;;;2.45;0.82;;;11.10;60.60;;;;;;4977459;28;20042;-92
2023/04/03 11:04:44;;;;;;;4.40;1.08;;;11.20;61.00;;;;;;4991290;28;20503;-90
2023/04/03 11:07:24;;;;;;;5.13;0.93;;;11.30;60.70;;;;;;4959784;28;20041;-90
2023/04/03 11:09:56;;;;;;;5.72;1.08;;;11.40;60.50;;;;;;4975140;28;20120;-91
2023/04/03 11:12:35;;;;;;;2.33;0.88;;;11.50;60.30;;;;;;4984785;28;20042;-91
2023/04/03 11:15:02;;;;;;;4.60;1.08;;;11.60;58.30;;;;;;4980540;28;20492;-92
2023/04/03 11:17:43;;;;;;;4.47;1.17;;;11.70;59.30;;;;;;4982366;28;20396;-92
2023/04/03 11:20:19;;;;;;;4.38;0.95;;;11.90;59.00;;;;;;4967960;28;20088;-91
2023/04/03 11:22:51;;;;;;;4.20;1.25;;;12.00;59.30;;;;;;4967530;28;20089;-90
2023/04/03 11:25:23;;;;;;;5.55;1.45;;;12.10;59.20;;;;;;4985822;28;20038;-91
2023/04/03 11:28:06;;;;;;;6.68;1.65;;;12.10;58.20;;;;;;4976594;28;20076;-91
2023/04/03 11:31:14;;;;;;;4.35;1.13;;;12.20;58.00;;;;;;4956572;28;20100;-91
2023/04/03 11:34:08;;;;;;;4.88;1.30;;;12.40;56.70;;;;;;4973731;28;20046;-92
2023/04/03 11:36:47;;;;;;;5.68;1.40;;;12.40;56.70;;;;;;4973434;28;20042;-93
2023/04/03 11:39:22;;;;;;;3.35;1.00;;;12.50;57.00;;;;;;4947683;28;20034;-93
2023/04/03 11:41:48;;;;;;;5.75;1.00;;;12.60;55.60;;;;;;4938090;28;20063;-92
2023/04/03 11:44:32;;;;;;;5.00;1.02;;;12.60;56.50;;;;;;4942007;28;20030;-92
2023/04/03 11:46:59;;;;;;;3.47;0.90;;;12.80;55.10;;;;;;4957469;28;20121;-91
2023/04/03 11:50:09;;;;;;;4.72;1.00;;;12.90;56.70;;;;;;4973796;28;20496;-91
2023/04/03 11:52:42;;;;;;;4.28;1.10;;;13.10;55.80;;;;;;4966692;28;20043;-91
2023/04/03 11:55:23;;;;;;;4.78;1.00;;;13.20;53.90;;;;;;4944056;28;20110;-91
2023/04/03 11:57:57;;;;;;;4.38;1.10;;;13.40;55.00;;;;;;4960916;28;20608;-92
2023/04/03 12:00:51;;;;;;;5.95;1.90;;;13.40;54.50;;;;;;4961067;28;20591;-91
2023/04/03 12:06:05;;;;;;;4.10;1.17;;;13.60;54.10;;;;;;4970546;28;20073;-92
2023/04/03 12:08:44;;;;;;;3.65;0.98;;;13.70;54.30;;;;;;4985739;28;20050;-92
2023/04/03 12:11:12;;;;;;;6.13;1.40;;;13.80;52.30;;;;;;4993948;28;20069;-92
2023/04/03 12:13:52;;;;;;;3.05;0.88;;;14.00;52.40;;;;;;4973030;28;20104;-92
2023/04/03 12:16:32;;;;;;;2.20;0.82;;;14.10;51.50;;;;;;5009829;28;20046;-91
2023/04/03 12:19:34;;;;;;;5.38;1.15;;;14.20;49.90;;;;;;4993695;28;20049;-92
2023/04/03 12:22:00;;;;;;;4.50;0.95;;;14.40;51.70;;;;;;4958227;28;20117;-92
2023/04/03 12:24:28;;;;;;;5.55;1.65;;;14.60;52.00;;;;;;4979256;28;20121;-92
2023/04/03 12:26:56;;;;;;;4.40;1.38;;;14.80;50.60;;;;;;4968161;28;20030;-92
2023/04/03 12:29:34;;;;;;;6.40;1.45;;;15.00;49.80;;;;;;4977456;28;20034;-92
2023/04/03 12:32:22;;;;;;;4.93;1.10;;;15.10;48.80;;;;;;4984065;28;20336;-92
2023/04/03 12:34:56;;;;;;;4.38;1.05;;;15.00;49.00;;;;;;4992490;28;20045;-92
2023/04/03 12:37:28;;;;;;;6.53;1.45;;;14.90;49.80;;;;;;4977738;28;20048;-93
2023/04/03 12:40:17;;;;;;;4.77;1.00;;;15.00;50.00;;;;;;4998072;28;20058;-92
2023/04/03 12:43:06;;;;;;;7.53;1.50;;;15.00;48.20;;;;;;4990823;28;20073;-91
2023/04/03 12:46:03;;;;;;;6.28;1.50;;;15.10;48.90;;;;;;4969808;28;20046;-92
2023/04/03 12:48:31;;;;;;;8.38;1.20;;;15.20;48.30;;;;;;4937865;28;20050;-91
2023/04/03 12:50:58;;;;;;;5.35;1.35;;;15.20;48.80;;;;;;4950454;28;20035;-91
2023/04/03 12:53:34;;;;;;;7.45;1.80;;;15.30;47.90;;;;;;4955444;28;20051;-91
2023/04/03 12:56:28;;;;;;;4.32;1.10;;;15.30;47.00;;;;;;4920604;29;20046;-92
2023/04/03 12:59:12;;;;;;;5.15;1.40;;;15.60;48.20;;;;;;4920877;29;20091;-92
2023/04/03 13:01:37;;;;;;;5.05;1.70;;;15.70;48.00;;;;;;4938115;28;20085;-91
2023/04/03 13:04:04;;;;;;;6.38;1.63;;;15.70;47.30;;;;;;4941101;28;20086;-92
2023/04/03 13:06:43;;;;;;;4.25;1.20;;;15.70;47.50;;;;;;4956435;28;20090;-93
2023/04/03 13:09:23;;;;;;;8.43;1.67;;;15.90;47.00;;;;;;4939272;28;20074;-91
2023/04/03 13:11:51;;;;;;;4.55;1.40;;;16.10;46.90;;;;;;4940127;28;20042;-92
2023/04/03 13:14:23;;;;;;;6.63;1.70;;;16.30;46.60;;;;;;4939302;28;20039;-92